Terminal Aerodrome Forecast
Issued by NWS

Home | Current Version | Previous Version | Graphics & Text | Print | Product List | Glossary On
Versions: 1 2 3 4 5 6 7 8 9 10 11 12 13 14 15 16 17
000
FTUS43 KMPX 191100
TAFRNH
TAF
KRNH 191120Z 1912/2012 14014G23KT P6SM VCSH SCT070 BKN130
     FM191400 16019G29KT P6SM SCT050 BKN100
     FM191800 19013G23KT P6SM VCSH SCT035 OVC060
     FM192300 21010KT P6SM SCT060 BKN100
     FM200600 24004KT P6SM SCT100 BKN250=

USA.gov is the U.S. government's official web portal to all federal, state and local government web resources and services.